Time;durP1;ratioP1;P1;durP2;ratioP2;P2;SDS_P1;SDS_P2;PMS_P1;PMS_P2;Temp;Humidity;BMP_temperature;BMP_pressure;BME280_temperature;BME280_humidity;BME280_pressure;Samples;Min_cycle;Max_cycle;Signal;HPM_P1;HPM_P2
2022/06/29 00:02:22;;;;;;;1.47;1.37;;;22.80;69.40;;;23.65;nan;100449.16;4974930;28;20657;-67
2022/06/29 00:04:49;;;;;;;2.07;1.40;;;22.90;69.40;;;23.66;nan;100448.13;4961175;28;20632;-68
2022/06/29 00:07:16;;;;;;;1.83;1.73;;;22.90;69.50;;;23.64;nan;100452.00;4955221;29;21051;-67
2022/06/29 00:09:43;;;;;;;1.50;1.40;;;22.80;69.60;;;23.60;nan;100443.59;4973452;28;20662;-69
2022/06/29 00:12:10;;;;;;;1.80;1.70;;;22.80;69.60;;;23.60;nan;100442.75;4974392;28;20879;-67
2022/06/29 00:14:41;;;;;;;2.10;1.63;;;22.80;69.70;;;23.60;nan;100448.09;4973016;28;20658;-67
2022/06/29 00:17:13;;;;;;;1.67;1.40;;;22.90;69.90;;;23.62;nan;100443.38;4975450;28;20681;-67
2022/06/29 00:19:41;;;;;;;1.63;1.63;;;22.80;70.20;;;23.60;nan;100427.63;4974794;28;21046;-67
2022/06/29 00:22:09;;;;;;;3.07;1.30;;;22.80;70.30;;;23.48;nan;100429.22;4973565;28;20643;-67
2022/06/29 00:24:36;;;;;;;1.50;1.40;;;22.70;70.80;;;23.45;nan;100428.75;4973234;28;20635;-67
2022/06/29 00:27:04;;;;;;;1.70;1.60;;;22.60;71.00;;;23.48;nan;100423.06;4973890;28;21191;-68
2022/06/29 00:29:31;;;;;;;2.53;1.70;;;22.70;70.90;;;23.49;nan;100430.03;4957154;28;20654;-67
2022/06/29 00:31:58;;;;;;;1.47;1.43;;;22.70;70.90;;;23.52;nan;100426.97;4974369;28;20643;-67
2022/06/29 00:34:26;;;;;;;1.77;1.67;;;22.70;71.00;;;23.53;nan;100431.28;4974499;28;20639;-68
2022/06/29 00:36:53;;;;;;;1.57;1.47;;;22.70;71.00;;;23.40;nan;100428.56;4971861;28;20634;-67
2022/06/29 00:39:20;;;;;;;2.00;1.90;;;22.60;71.50;;;23.43;nan;100425.47;4968804;28;20680;-67
2022/06/29 00:41:47;;;;;;;1.60;1.50;;;22.60;71.50;;;23.37;nan;100431.59;4969518;28;21221;-68
2022/06/29 00:44:17;;;;;;;2.73;2.53;;;22.60;71.80;;;23.35;nan;100429.16;4972550;28;20635;-66
2022/06/29 00:46:57;;;;;;;1.33;1.23;;;22.50;71.80;;;23.38;nan;100433.25;4973995;28;21198;-67
2022/06/29 00:49:28;;;;;;;5.33;1.50;;;22.60;71.60;;;23.33;nan;100430.34;4972960;28;20666;-68
2022/06/29 00:52:15;;;;;;;1.57;1.47;;;22.50;72.10;;;23.39;nan;100425.06;4974114;28;20642;-67
2022/06/29 00:54:52;;;;;;;1.80;1.70;;;22.60;72.40;;;23.40;nan;100425.91;4973138;28;21023;-67
2022/06/29 00:57:26;;;;;;;1.50;1.50;;;22.60;72.70;;;23.44;nan;100427.13;4961901;28;20646;-68
2022/06/29 00:59:56;;;;;;;2.03;1.80;;;22.60;72.60;;;23.44;nan;100427.13;4968283;28;20678;-66
2022/06/29 01:02:32;;;;;;;1.57;1.57;;;22.60;72.30;;;23.48;nan;100428.38;4972249;28;21073;-68
2022/06/29 01:05:00;;;;;;;2.50;1.70;;;22.70;72.10;;;23.51;nan;100422.69;4971878;28;20623;-68
2022/06/29 01:07:30;;;;;;;1.80;1.70;;;22.70;71.90;;;23.51;nan;100428.78;4973673;28;20635;-67
2022/06/29 01:09:57;;;;;;;1.77;1.70;;;22.70;72.00;;;23.54;nan;100428.41;4971975;28;21277;-67
2022/06/29 01:12:25;;;;;;;1.40;1.37;;;22.70;72.10;;;23.54;nan;100425.75;4972055;28;20633;-67
2022/06/29 01:14:53;;;;;;;1.73;1.63;;;22.70;72.20;;;23.52;nan;100426.97;4974019;28;20647;-67
2022/06/29 01:17:22;;;;;;;2.07;1.93;;;22.70;72.40;;;23.45;nan;100426.09;4973609;28;20829;-67
2022/06/29 01:19:49;;;;;;;1.70;1.60;;;22.60;72.50;;;23.46;nan;100425.09;4953439;28;20679;-67
2022/06/29 01:22:22;;;;;;;2.87;1.67;;;22.60;72.60;;;23.40;nan;100426.72;4953801;28;20612;-67
2022/06/29 01:24:50;;;;;;;4.30;1.53;;;22.60;72.60;;;23.42;nan;100430.00;4964368;28;20635;-67
2022/06/29 01:27:19;;;;;;;1.40;1.40;;;22.60;72.70;;;23.39;nan;100424.25;4973623;28;20675;-67
2022/06/29 01:29:47;;;;;;;1.60;1.50;;;22.60;72.90;;;23.34;nan;100414.19;4973378;28;20658;-69
2022/06/29 01:32:14;;;;;;;2.07;1.40;;;22.50;73.50;;;23.42;nan;100414.03;4971565;28;20638;-66
2022/06/29 01:34:42;;;;;;;1.80;1.80;;;22.60;73.40;;;23.44;nan;100422.66;4972418;28;20643;-67
2022/06/29 01:37:10;;;;;;;1.63;1.53;;;22.60;73.10;;;23.46;nan;100417.09;4971277;28;20619;-67
2022/06/29 01:39:38;;;;;;;3.80;1.57;;;22.60;73.10;;;23.47;nan;100416.09;4971584;28;20690;-69
2022/06/29 01:42:06;;;;;;;1.33;1.33;;;22.60;73.00;;;23.40;nan;100413.41;4972108;28;20964;-67
2022/06/29 01:44:34;;;;;;;1.90;1.70;;;22.60;73.20;;;23.31;nan;100414.56;4972305;28;20690;-69
2022/06/29 01:47:03;;;;;;;1.73;1.63;;;22.50;73.30;;;23.32;nan;100412.72;4972041;28;21225;-68
2022/06/29 01:49:30;;;;;;;2.50;1.70;;;22.50;73.40;;;23.24;nan;100400.38;4971999;28;20671;-67
2022/06/29 01:51:57;;;;;;;6.63;1.70;;;22.40;73.50;;;23.30;nan;100404.13;4972246;28;21020;-67
2022/06/29 01:54:24;;;;;;;2.93;1.63;;;22.50;73.40;;;23.31;nan;100411.06;4970857;28;21049;-67
2022/06/29 01:56:51;;;;;;;1.67;1.57;;;22.50;73.20;;;23.34;nan;100406.19;4972038;28;20631;-69
2022/06/29 01:59:18;;;;;;;5.70;1.90;;;22.60;73.10;;;23.36;nan;100406.00;4971200;28;20682;-67
2022/06/29 02:01:48;;;;;;;2.87;1.70;;;22.60;72.90;;;23.42;nan;100407.88;4972481;28;20632;-67
2022/06/29 02:04:15;;;;;;;1.93;1.57;;;22.70;72.50;;;23.40;nan;100401.94;4968823;28;20624;-67
2022/06/29 02:06:43;;;;;;;2.20;2.00;;;22.60;72.70;;;23.35;nan;100402.53;4969995;28;20639;-67
2022/06/29 02:09:10;;;;;;;6.43;1.90;;;22.60;73.10;;;23.38;nan;100399.47;4985779;28;20670;-67
2022/06/29 02:11:37;;;;;;;1.60;1.50;;;22.60;72.90;;;23.30;nan;100396.94;4972214;28;20611;-67
2022/06/29 02:14:04;;;;;;;1.90;1.80;;;22.50;73.40;;;23.25;nan;100390.56;4972243;28;20642;-67
2022/06/29 02:16:32;;;;;;;1.93;1.83;;;22.50;73.80;;;23.20;nan;100391.16;4973600;28;20615;-67
2022/06/29 02:18:59;;;;;;;1.70;1.60;;;22.40;74.80;;;23.15;nan;100383.75;4973087;28;20675;-67
2022/06/29 02:21:26;;;;;;;1.50;1.50;;;22.30;75.40;;;23.11;nan;100387.00;4971164;28;20846;-69
2022/06/29 02:23:53;;;;;;;3.40;1.87;;;22.30;76.30;;;23.02;nan;100380.22;4971202;28;21014;-67
2022/06/29 02:26:20;;;;;;;1.57;1.47;;;22.30;77.50;;;23.04;nan;100373.66;4970668;28;20933;-68
2022/06/29 02:28:47;;;;;;;1.93;1.70;;;22.20;77.50;;;23.05;nan;100377.97;4971424;28;20662;-67
2022/06/29 02:36:45;;;;;;;1.70;1.60;;;22.20;77.90;;;22.87;nan;100377.66;4962762;28;20631;-67
2022/06/29 02:39:13;;;;;;;1.67;1.67;;;22.10;78.10;;;22.87;nan;100384.84;4969830;28;20679;-68
2022/06/29 02:41:40;;;;;;;1.90;1.80;;;22.10;78.50;;;22.86;nan;100376.03;4971517;28;20639;-67
2022/06/29 02:44:07;;;;;;;1.80;1.70;;;22.00;78.40;;;22.83;nan;100386.25;4972822;28;21003;-68
2022/06/29 02:46:34;;;;;;;7.73;1.53;;;22.00;78.20;;;22.83;nan;100381.72;4971667;28;20619;-66
2022/06/29 02:49:01;;;;;;;3.57;1.93;;;22.00;78.80;;;22.80;nan;100381.31;4958746;28;20664;-67
2022/06/29 02:51:28;;;;;;;2.47;1.80;;;22.00;78.20;;;22.84;nan;100382.56;4969293;28;20650;-67
2022/06/29 02:53:55;;;;;;;3.63;2.20;;;22.00;78.10;;;22.85;nan;100384.22;4970897;28;21006;-68
2022/06/29 02:56:22;;;;;;;2.47;1.87;;;22.10;78.00;;;22.89;nan;100386.25;4971352;28;20658;-67
2022/06/29 02:58:49;;;;;;;2.13;1.93;;;22.10;77.80;;;22.88;nan;100381.16;4971153;28;20689;-67
2022/06/29 03:01:16;;;;;;;2.30;2.10;;;22.10;77.40;;;22.85;nan;100382.34;4971259;28;20631;-67
2022/06/29 03:03:43;;;;;;;2.53;1.80;;;22.10;77.00;;;22.83;nan;100380.94;4970867;28;20631;-67
2022/06/29 03:06:10;;;;;;;1.63;1.53;;;22.10;77.30;;;22.72;nan;100387.59;4970846;28;20639;-67
2022/06/29 03:08:37;;;;;;;1.97;1.87;;;22.00;77.40;;;22.76;nan;100391.53;4972200;28;21238;-68
2022/06/29 03:11:04;;;;;;;2.07;1.87;;;22.00;77.40;;;22.68;nan;100377.56;4968208;28;20646;-67
2022/06/29 03:13:31;;;;;;;1.67;1.67;;;21.90;77.40;;;22.58;nan;100388.50;4971064;28;20615;-67
2022/06/29 03:15:58;;;;;;;1.80;1.70;;;21.90;77.80;;;22.56;nan;100379.06;4970735;28;20643;-67
2022/06/29 03:18:26;;;;;;;2.33;2.00;;;21.80;77.90;;;22.55;nan;100383.56;4970216;28;20671;-68
2022/06/29 03:20:53;;;;;;;2.10;1.90;;;21.80;78.10;;;22.58;nan;100380.50;4970867;28;20725;-67
2022/06/29 03:23:20;;;;;;;2.40;2.20;;;21.80;77.70;;;22.60;nan;100381.16;4974051;28;21543;-67
2022/06/29 03:25:47;;;;;;;2.10;2.00;;;21.80;77.80;;;22.59;nan;100379.53;4967926;28;20706;-68
2022/06/29 03:28:14;;;;;;;1.90;1.80;;;21.80;77.60;;;22.57;nan;100388.69;4974094;28;20799;-67
2022/06/29 03:30:42;;;;;;;1.70;1.70;;;21.80;77.80;;;22.58;nan;100393.81;4974180;28;20645;-67
2022/06/29 03:33:09;;;;;;;1.63;1.60;;;21.80;77.70;;;22.62;nan;100387.13;4975562;28;20611;-67
2022/06/29 03:35:36;;;;;;;1.80;1.70;;;21.80;77.60;;;22.61;nan;100377.50;4973416;28;20650;-67
2022/06/29 03:38:03;;;;;;;1.57;1.50;;;21.80;77.70;;;22.56;nan;100377.22;4972993;28;20798;-67
2022/06/29 03:40:30;;;;;;;2.10;2.00;;;21.80;78.00;;;22.65;nan;100377.94;4974280;28;20679;-67
2022/06/29 03:42:57;;;;;;;3.27;2.00;;;21.90;78.00;;;22.69;nan;100376.53;4973857;28;21049;-67
2022/06/29 03:45:24;;;;;;;1.70;1.63;;;21.90;77.70;;;22.66;nan;100380.38;4973645;28;21005;-67
2022/06/29 03:47:51;;;;;;;5.20;1.93;;;21.90;77.80;;;22.68;nan;100385.53;4961893;28;21239;-67
2022/06/29 03:50:18;;;;;;;1.63;1.50;;;21.90;78.00;;;22.63;nan;100386.13;4955637;28;20628;-67
2022/06/29 03:52:49;;;;;;;1.73;1.73;;;21.80;78.20;;;22.63;nan;100378.13;4966286;28;21076;-68
2022/06/29 03:55:16;;;;;;;2.97;1.80;;;21.90;78.50;;;22.66;nan;100371.63;4974297;28;20634;-67
2022/06/29 03:57:44;;;;;;;1.93;1.80;;;21.90;78.70;;;22.69;nan;100374.69;4973219;28;21277;-67
2022/06/29 04:00:12;;;;;;;1.90;1.80;;;21.90;78.80;;;22.74;nan;100374.94;4975564;28;20743;-67
2022/06/29 04:02:39;;;;;;;1.93;1.67;;;21.90;78.70;;;22.78;nan;100372.72;4957499;28;20643;-68
2022/06/29 04:05:06;;;;;;;1.97;1.87;;;22.00;78.60;;;22.70;nan;100370.22;4956023;28;20687;-70
2022/06/29 04:07:35;;;;;;;1.57;1.57;;;21.90;78.70;;;22.70;nan;100360.38;4965555;28;20635;-67
2022/06/29 04:10:02;;;;;;;2.00;1.90;;;21.90;78.80;;;22.72;nan;100358.34;4981368;28;20986;-67
2022/06/29 04:12:35;;;;;;;2.20;1.60;;;21.90;79.20;;;22.75;nan;100365.94;4973201;28;20654;-67
2022/06/29 04:15:05;;;;;;;2.30;2.10;;;22.00;79.30;;;22.78;nan;100368.22;4974943;28;20635;-67
2022/06/29 04:17:32;;;;;;;2.30;2.00;;;22.00;79.00;;;22.82;nan;100369.47;4964194;28;20644;-67
2022/06/29 04:19:59;;;;;;;4.43;1.90;;;22.10;79.10;;;22.85;nan;100369.06;4970713;28;21028;-67
2022/06/29 04:22:27;;;;;;;7.10;2.03;;;22.10;79.30;;;22.89;nan;100364.97;4971331;28;20897;-68
2022/06/29 04:24:54;;;;;;;2.00;1.90;;;22.10;79.20;;;22.91;nan;100373.59;4974369;28;20638;-68
2022/06/29 04:27:21;;;;;;;1.87;1.77;;;22.10;79.90;;;22.91;nan;100373.59;4973861;28;20615;-67
2022/06/29 04:29:48;;;;;;;2.17;1.63;;;22.10;79.30;;;22.88;nan;100366.00;4971738;28;20703;-69
2022/06/29 04:32:16;;;;;;;2.30;2.10;;;22.10;79.40;;;22.90;nan;100371.13;4973467;28;20639;-67
2022/06/29 04:34:43;;;;;;;2.03;1.93;;;22.10;79.20;;;22.86;nan;100364.56;4972933;28;21213;-67
2022/06/29 04:37:10;;;;;;;5.40;2.00;;;22.10;79.50;;;22.86;nan;100368.06;4973440;28;20634;-67
2022/06/29 04:39:37;;;;;;;3.47;1.57;;;22.00;79.80;;;22.88;nan;100368.69;4972230;28;20678;-68
2022/06/29 04:42:04;;;;;;;2.50;2.30;;;22.00;80.00;;;22.93;nan;100368.91;4974737;28;20627;-67
2022/06/29 04:44:31;;;;;;;2.50;2.30;;;22.10;80.50;;;22.91;nan;100362.16;4973363;28;20635;-67
2022/06/29 04:46:58;;;;;;;2.00;1.90;;;22.10;80.90;;;22.91;nan;100365.59;4974210;28;20643;-67
2022/06/29 04:49:25;;;;;;;6.00;2.07;;;22.10;81.20;;;22.94;nan;100365.22;4972152;28;20717;-68
2022/06/29 04:51:52;;;;;;;2.10;2.00;;;22.10;80.90;;;22.97;nan;100356.03;4957690;28;20635;-67
2022/06/29 04:54:19;;;;;;;2.60;2.20;;;22.10;80.90;;;22.99;nan;100365.47;4969035;28;20690;-68
2022/06/29 04:56:46;;;;;;;2.10;2.00;;;22.20;80.90;;;22.99;nan;100360.16;4958090;28;20631;-67
2022/06/29 04:59:15;;;;;;;1.60;1.60;;;22.20;81.20;;;23.05;nan;100366.50;4984877;23;20681;-66
2022/06/29 05:01:43;;;;;;;2.00;1.90;;;22.20;81.30;;;23.08;nan;100361.59;4991233;28;20658;-66
2022/06/29 05:04:10;;;;;;;2.03;1.93;;;22.30;81.50;;;23.15;nan;100362.47;4991667;28;21017;-67
2022/06/29 05:06:37;;;;;;;2.13;2.03;;;22.40;81.50;;;23.27;nan;100370.72;4992538;28;20618;-64
2022/06/29 05:09:04;;;;;;;2.00;1.90;;;22.50;81.70;;;23.39;nan;100365.66;4989857;28;20665;-66
2022/06/29 05:11:31;;;;;;;2.50;2.30;;;22.60;81.70;;;23.48;nan;100359.97;4992572;28;20633;-67
2022/06/29 05:13:59;;;;;;;2.13;1.93;;;22.70;81.60;;;23.58;nan;100359.59;4990954;28;20649;-66
2022/06/29 05:16:26;;;;;;;2.23;2.13;;;22.80;81.50;;;23.60;nan;100360.19;4993506;28;20626;-67
2022/06/29 05:18:54;;;;;;;3.53;2.27;;;22.90;81.20;;;23.64;nan;100358.78;4990726;28;21016;-66
2022/06/29 05:21:21;;;;;;;3.97;1.97;;;22.90;81.20;;;23.57;nan;100361.44;4987111;28;20667;-68
2022/06/29 05:23:48;;;;;;;2.43;2.30;;;22.90;81.00;;;23.53;nan;100370.03;4986819;28;20852;-65
2022/06/29 05:26:16;;;;;;;10.33;2.70;;;22.80;80.40;;;23.58;nan;100357.75;4991442;28;20626;-66
2022/06/29 05:28:43;;;;;;;2.70;2.60;;;22.80;80.40;;;23.54;nan;100366.34;4991818;28;21048;-66
2022/06/29 05:31:10;;;;;;;2.83;2.37;;;22.80;80.30;;;23.57;nan;100366.78;4992270;28;20637;-67
2022/06/29 05:33:37;;;;;;;2.37;2.27;;;22.80;80.10;;;23.57;nan;100371.28;4989466;28;20645;-65
2022/06/29 05:36:09;;;;;;;2.70;2.10;;;22.80;80.30;;;23.57;nan;100368.59;4989402;28;20646;-66
2022/06/29 05:38:37;;;;;;;14.70;2.80;;;22.80;80.70;;;23.58;nan;100367.56;4989389;28;20646;-65
2022/06/29 05:41:05;;;;;;;2.50;2.30;;;22.80;80.60;;;23.59;nan;100363.91;4990968;28;20682;-65
2022/06/29 05:43:32;;;;;;;2.90;2.70;;;22.80;80.50;;;23.67;nan;100364.53;4990877;28;21210;-65
2022/06/29 05:46:00;;;;;;;3.20;2.70;;;22.90;80.30;;;23.67;nan;100364.53;4984944;28;21190;-66
2022/06/29 05:48:27;;;;;;;2.13;2.03;;;22.90;80.40;;;23.66;nan;100365.56;4986637;28;20647;-67
2022/06/29 05:50:54;;;;;;;2.40;2.20;;;22.90;81.10;;;23.51;nan;100358.75;4988859;28;20662;-66
2022/06/29 05:53:22;;;;;;;2.63;2.43;;;22.70;81.60;;;23.49;nan;100358.16;4989832;28;20715;-67
2022/06/29 05:55:49;;;;;;;2.50;2.30;;;22.70;82.10;;;23.47;nan;100358.31;4982989;28;20638;-65
2022/06/29 05:58:19;;;;;;;2.80;2.60;;;22.70;82.60;;;23.49;nan;100355.47;4989547;28;20625;-68
2022/06/29 06:00:47;;;;;;;2.40;2.20;;;22.70;82.70;;;23.52;nan;100353.22;4954212;28;21051;-67
2022/06/29 06:03:15;;;;;;;2.80;2.60;;;22.70;82.10;;;23.49;nan;100363.47;4986865;28;20650;-66
2022/06/29 06:05:42;;;;;;;2.30;2.20;;;22.70;81.90;;;23.46;nan;100364.69;4987508;28;20642;-68
2022/06/29 06:08:09;;;;;;;1.97;1.87;;;22.70;81.70;;;23.52;nan;100355.06;4989280;28;20635;-66
2022/06/29 06:10:36;;;;;;;2.57;2.37;;;22.70;82.20;;;23.60;nan;100358.38;4976521;28;20655;-66
2022/06/29 06:13:05;;;;;;;2.43;2.33;;;22.80;82.40;;;23.67;nan;100363.72;4972074;28;20636;-66
2022/06/29 06:15:34;;;;;;;2.27;2.17;;;22.90;81.90;;;23.68;nan;100360.84;4980676;28;20630;-66
2022/06/29 06:18:01;;;;;;;6.63;2.43;;;22.90;81.90;;;23.80;nan;100363.75;4973765;28;21215;-66
2022/06/29 06:20:29;;;;;;;2.20;2.10;;;23.10;82.00;;;23.91;nan;100365.81;4989638;28;21051;-66
2022/06/29 06:22:56;;;;;;;2.07;1.97;;;23.10;82.00;;;24.04;nan;100376.53;4991132;28;20627;-65
2022/06/29 06:25:28;;;;;;;2.27;2.07;;;23.30;81.30;;;24.13;nan;100375.28;4990177;28;20630;-67
2022/06/29 06:27:55;;;;;;;2.77;2.27;;;23.40;81.40;;;24.23;nan;100370.41;4983467;28;20623;-65
2022/06/29 06:30:22;;;;;;;2.73;2.30;;;23.50;81.40;;;24.34;nan;100368.97;4987976;28;21504;-67
2022/06/29 06:32:49;;;;;;;15.03;2.67;;;23.60;81.40;;;24.46;nan;100370.81;4971327;28;20651;-67
2022/06/29 06:35:19;;;;;;;2.93;2.47;;;23.70;81.20;;;24.46;nan;100364.63;4983680;28;20630;-65
2022/06/29 06:37:47;;;;;;;2.33;2.17;;;23.80;81.10;;;24.65;nan;100375.28;4989404;28;20641;-65
2022/06/29 06:43:00;;;;;;;1.93;1.87;;;24.00;80.50;;;25.13;nan;100388.38;4987738;28;21190;-66
2022/06/29 06:45:27;;;;;;;2.50;2.30;;;24.40;80.50;;;25.42;nan;100387.03;4988929;28;20635;-65
2022/06/29 06:47:54;;;;;;;2.17;2.07;;;24.70;79.70;;;25.80;nan;100394.03;4989598;28;20641;-66
2022/06/29 06:50:21;;;;;;;2.53;2.33;;;25.00;78.50;;;26.29;nan;100397.84;4980606;28;20662;-65
2022/06/29 06:52:49;;;;;;;2.83;2.63;;;25.50;77.20;;;27.11;nan;100400.19;4981105;28;20621;-66
2022/06/29 06:55:16;;;;;;;2.50;2.27;;;26.30;75.50;;;29.01;nan;100409.78;4984226;28;21047;-68
2022/06/29 06:57:43;;;;;;;2.30;2.20;;;28.20;73.00;;;31.34;nan;100399.34;4970785;28;20634;-65
2022/06/29 07:00:11;;;;;;;2.73;2.30;;;30.60;67.50;;;33.59;nan;100407.63;4988893;28;20677;-65
2022/06/29 07:02:39;;;;;;;2.07;1.97;;;32.90;62.00;;;35.23;nan;100408.97;4985613;28;20640;-68
2022/06/29 07:05:07;;;;;;;2.37;2.27;;;34.60;57.10;;;36.66;nan;100418.63;4985089;28;20750;-66
2022/06/29 07:07:34;;;;;;;3.20;3.00;;;36.00;53.90;;;;;;4989684;28;20645;-68
2022/06/29 07:10:01;;;;;;;2.87;2.67;;;37.00;51.40;;;;;;4990797;28;20649;-68
2022/06/29 07:12:28;;;;;;;2.57;2.40;;;38.20;49.50;;;;;;4989514;28;20637;-66
2022/06/29 07:14:55;;;;;;;2.60;2.40;;;39.30;47.80;;;;;;4988852;28;20721;-66
2022/06/29 07:17:21;;;;;;;2.50;2.40;;;40.00;46.20;;;;;;4975707;28;20624;-65
2022/06/29 07:19:48;;;;;;;2.33;2.20;;;40.80;45.20;;;;;;4972563;28;20734;-66
2022/06/29 07:22:15;;;;;;;2.87;2.67;;;41.50;44.00;;;;;;4990102;28;20607;-66
2022/06/29 07:24:42;;;;;;;5.13;2.30;;;42.10;43.00;;;;;;4990623;28;20713;-67
2022/06/29 07:27:09;;;;;;;2.50;2.40;;;42.60;42.20;;;;;;4988874;28;21035;-66
2022/06/29 07:29:36;;;;;;;2.40;2.30;;;43.00;41.60;;;;;;4988400;28;21007;-65
2022/06/29 07:32:03;;;;;;;2.73;2.53;;;43.60;41.00;;;;;;4990203;28;21237;-66
2022/06/29 07:34:30;;;;;;;2.30;2.27;;;44.10;40.40;;;;;;4974746;28;21213;-68
2022/06/29 07:36:57;;;;;;;2.63;2.43;;;44.60;39.80;;;;;;4989730;28;20664;-66
2022/06/29 07:39:23;;;;;;;3.80;2.53;;;44.90;39.30;;;;;;5003908;28;20733;-65
2022/06/29 07:41:59;;;;;;;2.60;2.40;;;45.10;39.10;;;;;;4983688;28;20663;-67
2022/06/29 07:44:26;;;;;;;2.40;2.30;;;45.60;38.70;;;;;;4980127;28;20615;-66
2022/06/29 07:46:52;;;;;;;3.00;2.83;;;46.10;38.10;;;;;;4988381;28;20721;-66
2022/06/29 07:49:20;;;;;;;2.57;2.37;;;46.50;37.60;;;;;;4989025;28;20701;-65
2022/06/29 07:51:47;;;;;;;2.57;2.47;;;46.20;37.20;;;;;;4989967;28;20689;-65
2022/06/29 07:54:14;;;;;;;2.70;2.60;;;45.90;37.40;;;;;;4989992;28;20637;-65
2022/06/29 07:56:41;;;;;;;3.03;2.83;;;46.10;37.10;;;;;;4990421;28;20978;-65
2022/06/29 07:59:28;;;;;;;2.57;2.47;;;45.30;36.50;;;;;;4987361;28;20685;-65
2022/06/29 08:01:55;;;;;;;2.77;2.60;;;44.60;37.20;;;;;;4988260;28;21056;-65
2022/06/29 08:04:22;;;;;;;2.80;2.70;;;44.30;37.00;;;;;;4977790;28;20651;-65
2022/06/29 08:07:06;;;;;;;2.70;2.60;;;43.80;37.70;;;;;;4973052;28;20654;-65
2022/06/29 08:09:33;;;;;;;2.23;2.23;;;43.30;37.70;;;;;;4991329;28;20717;-64
2022/06/29 08:12:00;;;;;;;2.83;2.73;;;43.50;37.90;;;;;;4990623;28;20947;-65
2022/06/29 08:14:26;;;;;;;3.03;2.83;;;43.30;38.10;;;;;;4985480;28;20618;-65
2022/06/29 08:16:53;;;;;;;2.73;2.63;;;42.40;38.60;;;;;;4993590;28;20713;-65
2022/06/29 08:19:20;;;;;;;2.87;2.77;;;41.30;39.60;;;;;;4991449;28;20769;-64
2022/06/29 08:21:48;;;;;;;2.83;2.73;;;40.40;40.20;;;;;;4992956;28;20658;-65
2022/06/29 08:24:14;;;;;;;3.23;3.13;;;39.30;40.90;;;;;;4991246;28;20634;-65
2022/06/29 08:26:46;;;;;;;3.20;3.00;;;38.00;42.00;;;;;;4993797;28;20713;-65
2022/06/29 08:29:32;;;;;;;3.60;3.30;;;36.80;43.10;;;;;;4992456;28;20650;-65
2022/06/29 08:31:59;;;;;;;3.77;3.20;;;35.40;44.30;;;;;;4992887;28;20729;-65
2022/06/29 08:34:33;;;;;;;3.23;3.03;;;34.40;45.70;;;;;;4992634;28;20729;-65
2022/06/29 08:37:00;;;;;;;3.37;3.17;;;33.90;46.50;;;;;;4992868;28;21193;-64
2022/06/29 08:39:26;;;;;;;2.73;2.53;;;33.40;47.40;;;;;;4992899;28;20645;-65
2022/06/29 08:41:59;;;;;;;3.50;3.30;;;32.90;48.60;;;;;;4975267;28;20709;-64
2022/06/29 08:44:29;;;;;;;3.83;3.53;;;33.70;47.90;;;;;;4984330;28;20709;-65
2022/06/29 08:46:55;;;;;;;3.67;3.40;;;33.60;47.60;;;;;;5004667;28;20692;-64
2022/06/29 08:49:22;;;;;;;3.77;3.53;;;33.50;47.90;;;;;;4990102;28;20658;-65
2022/06/29 08:51:51;;;;;;;4.70;3.70;;;33.90;47.70;;;;;;4991933;28;21176;-65
2022/06/29 08:54:18;;;;;;;3.47;3.27;;;34.10;47.60;;;;;;4992003;28;20650;-64
2022/06/29 08:56:46;;;;;;;3.90;3.40;;;35.20;47.20;;;;;;4993933;28;20616;-65
2022/06/29 08:59:14;;;;;;;3.50;3.30;;;36.80;45.80;;;;;;4992487;28;20645;-65
2022/06/29 09:01:41;;;;;;;3.90;3.57;;;38.00;44.90;;;;;;4993113;28;21245;-65
2022/06/29 09:04:08;;;;;;;3.90;3.67;;;40.40;43.20;;;;;;4990677;28;20634;-65
2022/06/29 09:06:35;;;;;;;3.23;3.13;;;42.70;41.10;;;;;;4984070;28;20618;-64
2022/06/29 09:09:02;;;;;;;3.47;3.30;;;44.30;39.60;;;;;;4991830;28;20638;-65
2022/06/29 09:11:29;;;;;;;3.50;3.30;;;45.40;38.80;;;;;;4993895;28;20621;-65
2022/06/29 09:14:11;;;;;;;3.47;3.37;;;47.20;37.90;;;;;;4992641;28;21054;-65
2022/06/29 09:17:03;;;;;;;3.97;3.77;;;48.90;36.80;;;;;;4992783;28;20623;-65
2022/06/29 09:19:53;;;;;;;12.43;3.80;;;48.80;36.20;;;;;;4990702;28;21070;-64
2022/06/29 09:22:42;;;;;;;3.93;3.73;;;46.20;37.10;;;;;;4990771;28;20661;-65
2022/06/29 09:25:26;;;;;;;4.23;3.53;;;46.60;37.30;;;;;;4990301;28;21293;-65
2022/06/29 09:27:55;;;;;;;3.87;3.67;;;47.20;36.80;;;;;;4983166;28;20758;-65
2022/06/29 09:30:29;;;;;;;4.57;4.30;;;45.30;37.40;;;;;;4972842;28;21488;-65
2022/06/29 09:33:06;;;;;;;3.90;3.70;;;43.00;38.40;;;;;;4990229;28;20649;-65
2022/06/29 09:35:34;;;;;;;4.10;3.80;;;42.90;39.30;;;;;;4990509;28;20709;-65
2022/06/29 09:38:20;;;;;;;4.50;4.00;;;43.70;38.90;;;;;;4991434;28;20712;-65
2022/06/29 09:41:05;;;;;;;4.23;4.00;;;44.00;38.50;;;;;;4990995;28;20678;-64
2022/06/29 09:43:40;;;;;;;3.93;3.70;;;42.70;39.40;;;;;;4991283;28;20630;-64
2022/06/29 09:46:09;;;;;;;7.23;4.60;;;42.60;39.50;;;;;;4974164;28;20618;-64
2022/06/29 09:48:38;;;;;;;5.07;4.37;;;42.90;39.30;;;;;;4989700;28;20638;-64
2022/06/29 09:53:59;;;;;;;4.80;4.50;;;41.10;41.20;;;;;;4986970;28;21273;-64
2022/06/29 09:56:29;;;;;;;4.63;4.33;;;40.30;41.10;;;;;;4983722;28;20603;-63
2022/06/29 09:58:58;;;;;;;3.90;3.70;;;39.30;41.80;;;;;;4991887;28;20618;-64
2022/06/29 10:04:13;;;;;;;4.40;4.03;;;36.60;44.40;;;;;;4990092;28;20729;-64
2022/06/29 10:06:41;;;;;;;4.40;4.10;;;35.70;45.50;;;;;;4983575;28;20769;-64
2022/06/29 10:09:08;;;;;;;4.80;3.97;;;35.30;46.20;;;;;;4983867;28;20639;-64
2022/06/29 10:14:44;;;;;;;4.23;3.83;;;34.60;47.10;;;;;;4990902;28;20673;-64
2022/06/29 10:17:35;;;;;;;5.17;4.37;;;34.30;47.60;;;;;;4990167;28;20724;-64
2022/06/29 10:20:41;;;;;;;4.50;4.10;;;34.30;47.70;;;;;;4991245;28;20742;-64
2022/06/29 10:23:28;;;;;;;4.50;4.10;;;34.40;47.70;;;;;;4989801;28;20746;-64
2022/06/29 10:25:55;;;;;;;4.27;3.87;;;34.10;48.20;;;;;;4973993;28;20662;-64
2022/06/29 10:28:23;;;;;;;4.83;4.03;;;34.20;48.10;;;;;;4970255;28;20629;-64
2022/06/29 10:30:53;;;;;;;5.00;3.87;;;34.30;48.00;;;;;;4974934;28;20665;-64
2022/06/29 10:33:40;;;;;;;4.77;4.47;;;34.60;47.90;;;;;;4982496;28;20738;-64
2022/06/29 10:36:09;;;;;;;4.90;4.20;;;34.80;47.70;;;;;;4973721;28;20623;-63
2022/06/29 10:38:54;;;;;;;6.23;3.90;;;35.00;47.50;;;;;;4981853;28;21229;-64
2022/06/29 10:44:07;;;;;;;5.30;4.00;;;35.40;46.60;;;;;;4989779;28;20699;-64
2022/06/29 10:46:56;;;;;;;4.17;3.80;;;35.30;46.70;;;;;;4988291;28;21165;-64
2022/06/29 10:49:24;;;;;;;4.03;3.73;;;35.00;47.00;;;;;;4984000;28;21035;-63
2022/06/29 10:51:51;;;;;;;3.87;3.67;;;35.10;47.30;;;;;;4981598;28;21000;-64
2022/06/29 10:54:26;;;;;;;3.47;3.27;;;35.10;47.00;;;;;;4973773;28;20644;-64
2022/06/29 10:56:54;;;;;;;3.73;3.53;;;35.00;46.50;;;;;;4983538;28;20650;-64
2022/06/29 10:59:47;;;;;;;7.40;4.47;;;35.00;47.00;;;;;;4985786;28;20710;-64
2022/06/29 11:02:17;;;;;;;4.17;3.90;;;34.90;47.20;;;;;;4984122;28;21033;-64
2022/06/29 11:04:44;;;;;;;4.27;4.00;;;35.00;47.30;;;;;;4990353;28;20625;-63
2022/06/29 11:12:49;;;;;;;5.23;4.77;;;35.80;47.00;;;;;;4978315;28;21057;-64
2022/06/29 11:15:42;;;;;;;4.10;3.80;;;36.10;46.80;;;;;;4983525;28;20619;-64
2022/06/29 11:18:13;;;;;;;4.17;3.87;;;36.10;46.10;;;;;;4991707;28;20673;-64
2022/06/29 11:20:41;;;;;;;4.33;4.03;;;35.90;46.30;;;;;;4991247;28;20649;-64
2022/06/29 11:23:19;;;;;;;7.40;4.33;;;35.80;46.50;;;;;;4991289;28;20669;-65
2022/06/29 11:25:54;;;;;;;5.77;3.77;;;35.80;46.60;;;;;;4991243;28;20620;-65
2022/06/29 11:28:23;;;;;;;6.90;6.30;;;35.50;47.40;;;;;;4991011;28;20614;-64
2022/06/29 11:31:01;;;;;;;5.97;5.47;;;35.10;47.50;;;;;;4989548;28;21264;-67
2022/06/29 11:33:30;;;;;;;5.10;4.70;;;34.50;48.10;;;;;;4990877;28;20672;-69
2022/06/29 11:36:02;;;;;;;5.50;5.03;;;34.30;48.50;;;;;;4991034;28;20645;-65
2022/06/29 11:38:29;;;;;;;5.97;4.30;;;34.00;48.80;;;;;;4990633;28;20722;-66
2022/06/29 11:40:55;;;;;;;4.20;3.90;;;33.90;49.40;;;;;;4991100;28;20749;-67
2022/06/29 11:43:43;;;;;;;4.43;4.13;;;34.00;48.70;;;;;;4988354;28;20613;-65
2022/06/29 11:46:21;;;;;;;4.50;4.20;;;34.00;48.90;;;;;;4992065;28;21039;-65
2022/06/29 11:51:58;;;;;;;4.40;4.10;;;33.20;49.90;;;;;;4992597;28;20621;-65
2022/06/29 11:54:38;;;;;;;5.00;4.43;;;33.20;49.90;;;;;;4995123;28;20624;-66